createdAt,value
2023-04-25T00:00:14.688Z,26.83
2023-04-25T00:01:14.690Z,26.82
2023-04-25T00:02:14.800Z,26.82
2023-04-25T00:03:14.928Z,26.81
2023-04-25T00:04:15.006Z,26.85
2023-04-25T00:05:14.987Z,26.82
2023-04-25T00:06:14.958Z,26.83
2023-04-25T00:07:14.993Z,26.82
2023-04-25T00:08:15.044Z,26.83
2023-04-25T00:09:15.082Z,26.79
2023-04-25T00:10:15.077Z,26.86
2023-04-25T00:11:15.081Z,26.83
2023-04-25T00:12:15.114Z,26.82
2023-04-25T00:13:15.129Z,26.83
2023-04-25T00:14:15.165Z,26.82
2023-04-25T00:15:15.149Z,26.82
2023-04-25T00:16:15.231Z,26.82
2023-04-25T00:17:15.221Z,26.82
2023-04-25T00:18:15.220Z,26.82
2023-04-25T00:19:15.267Z,26.82
2023-04-25T00:20:15.277Z,26.81
2023-04-25T00:21:15.334Z,26.82
2023-04-25T00:22:15.357Z,26.81
2023-04-25T00:23:15.408Z,26.82
2023-04-25T00:24:15.478Z,26.83
2023-04-25T00:25:15.540Z,26.81
2023-04-25T00:26:15.579Z,26.83
2023-04-25T00:27:15.635Z,26.82
2023-04-25T00:28:15.677Z,26.82
2023-04-25T00:29:15.748Z,26.82
2023-04-25T00:30:15.747Z,26.83
2023-04-25T00:31:15.791Z,26.82
2023-04-25T00:32:15.794Z,26.82
2023-04-25T00:33:15.843Z,26.81
2023-04-25T00:34:15.936Z,26.81
2023-04-25T00:35:15.955Z,26.83
2023-04-25T00:36:16.012Z,26.81
2023-04-25T00:37:16.051Z,26.81
2023-04-25T00:38:16.091Z,26.81
2023-04-25T00:39:16.170Z,26.81
2023-04-25T00:40:16.209Z,26.81
2023-04-25T00:41:16.272Z,26.82
2023-04-25T00:42:16.310Z,26.82
2023-04-25T00:43:16.365Z,26.82
2023-04-25T00:44:16.404Z,26.82
2023-04-25T00:45:16.442Z,26.82
2023-04-25T00:46:16.570Z,26.83
2023-04-25T00:47:16.476Z,26.81
2023-04-25T00:48:16.507Z,26.79
2023-04-25T00:49:16.556Z,26.81
2023-04-25T00:50:16.610Z,26.82
2023-04-25T00:51:16.636Z,26.85
2023-04-25T00:52:16.652Z,26.82
2023-04-25T00:53:16.766Z,26.79
2023-04-25T00:54:16.709Z,26.81
2023-04-25T00:55:16.743Z,26.81
2023-04-25T00:56:16.727Z,26.81
2023-04-25T00:57:16.750Z,26.82
2023-04-25T00:58:16.791Z,26.82
2023-04-25T00:59:16.820Z,26.82
2023-04-25T01:00:16.889Z,26.82
2023-04-25T01:01:16.915Z,26.81
2023-04-25T01:02:17.019Z,26.82
2023-04-25T01:03:17.079Z,26.82
2023-04-25T01:04:17.166Z,26.83
2023-04-25T01:05:17.106Z,26.82
2023-04-25T01:06:17.163Z,26.82
2023-04-25T01:07:17.243Z,26.83
2023-04-25T01:08:17.255Z,26.83
2023-04-25T01:09:17.301Z,26.85
2023-04-25T01:10:17.362Z,26.83
2023-04-25T01:11:17.422Z,26.83
2023-04-25T01:12:17.461Z,26.81
2023-04-25T01:13:17.515Z,26.82
2023-04-25T01:14:17.618Z,26.81
2023-04-25T01:15:17.570Z,26.82
2023-04-25T01:16:17.622Z,26.85
2023-04-25T01:17:17.610Z,26.83
2023-04-25T01:18:17.647Z,26.83
2023-04-25T01:19:17.716Z,26.83
2023-04-25T01:20:17.714Z,26.82
2023-04-25T01:21:17.731Z,26.85
2023-04-25T01:22:17.733Z,26.85
2023-04-25T01:23:17.749Z,26.83
2023-04-25T01:24:17.789Z,26.86
2023-04-25T01:25:17.780Z,26.83
2023-04-25T01:26:17.817Z,26.83
2023-04-25T01:27:17.883Z,26.83
2023-04-25T01:28:17.927Z,26.82
2023-04-25T01:29:17.991Z,26.83
2023-04-25T01:30:18.019Z,26.83
2023-04-25T01:31:18.087Z,26.85
2023-04-25T01:32:18.277Z,26.83
2023-04-25T01:33:18.126Z,26.85
2023-04-25T01:34:18.201Z,26.85
2023-04-25T01:35:18.308Z,26.85
2023-04-25T01:36:18.262Z,26.82
2023-04-25T01:37:18.300Z,26.83
2023-04-25T01:38:18.321Z,26.83
2023-04-25T01:39:18.359Z,26.83
2023-04-25T01:40:18.379Z,26.83
2023-04-25T01:41:18.396Z,26.83
2023-04-25T01:42:18.453Z,26.86
2023-04-25T01:43:18.508Z,26.83
2023-04-25T01:44:18.547Z,26.85
2023-04-25T01:45:18.576Z,26.85
2023-04-25T01:46:18.654Z,26.86
2023-04-25T01:47:18.673Z,26.82
2023-04-25T01:48:18.725Z,26.85
2023-04-25T01:49:18.748Z,26.85
2023-04-25T01:50:18.772Z,26.83
2023-04-25T01:51:18.781Z,26.86
2023-04-25T01:52:18.784Z,26.82
2023-04-25T01:53:18.828Z,26.83
2023-04-25T01:54:18.901Z,26.83
2023-04-25T01:55:18.950Z,26.85
2023-04-25T01:56:19.014Z,26.85
2023-04-25T01:57:19.077Z,26.83
2023-04-25T01:58:19.103Z,26.83
2023-04-25T01:59:19.212Z,26.83
2023-04-25T02:00:19.232Z,26.83
2023-04-25T02:01:19.248Z,26.83
2023-04-25T02:02:19.343Z,26.85
2023-04-25T02:03:19.473Z,26.83
2023-04-25T02:04:19.476Z,26.86
2023-04-25T02:05:19.340Z,26.83
2023-04-25T02:06:19.397Z,26.83
2023-04-25T02:07:19.449Z,26.86
2023-04-25T02:08:19.510Z,26.85
2023-04-25T02:09:19.559Z,26.83
2023-04-25T02:10:19.609Z,26.85
2023-04-25T02:11:19.659Z,26.83
2023-04-25T02:12:19.736Z,26.85
2023-04-25T02:13:19.715Z,26.85
2023-04-25T02:14:19.714Z,26.83
2023-04-25T02:15:19.750Z,26.85
2023-04-25T02:16:19.855Z,26.83
2023-04-25T02:17:19.833Z,26.83
2023-04-25T02:18:19.822Z,26.85
2023-04-25T02:19:19.805Z,26.86
2023-04-25T02:20:19.832Z,26.85
2023-04-25T02:21:19.850Z,26.86
2023-04-25T02:22:19.872Z,26.85
2023-04-25T02:23:19.869Z,26.86
2023-04-25T02:24:19.939Z,26.85
2023-04-25T02:25:19.952Z,26.85
2023-04-25T02:26:20.006Z,26.85
2023-04-25T02:27:20.047Z,26.85
2023-04-25T02:28:20.099Z,26.83
2023-04-25T02:29:20.131Z,26.81
2023-04-25T02:30:20.176Z,26.85
2023-04-25T02:31:20.314Z,26.83
2023-04-25T02:32:20.272Z,26.85
2023-04-25T02:33:20.337Z,26.85
2023-04-25T02:34:20.422Z,26.83
2023-04-25T02:35:20.414Z,26.83
2023-04-25T02:36:20.488Z,26.86
2023-04-25T02:37:20.526Z,26.85
2023-04-25T02:38:20.578Z,26.83
2023-04-25T02:39:20.657Z,26.85
2023-04-25T02:40:20.677Z,26.86
2023-04-25T02:41:20.684Z,26.83
2023-04-25T02:42:20.720Z,26.85
2023-04-25T02:43:20.738Z,26.85
2023-04-25T02:44:20.779Z,26.85
2023-04-25T02:45:20.802Z,26.83
2023-04-25T02:46:32.175Z,26.86
2023-04-25T02:47:21.918Z,26.83
2023-04-25T02:48:20.815Z,26.86
2023-04-25T02:49:20.814Z,26.86
2023-04-25T02:50:20.810Z,26.85
2023-04-25T02:51:20.810Z,26.85
2023-04-25T02:52:20.771Z,26.85
2023-04-25T02:53:20.781Z,26.86
2023-04-25T02:54:20.786Z,26.85
2023-04-25T02:55:20.764Z,26.83
2023-04-25T02:56:20.779Z,26.86
2023-04-25T02:57:20.748Z,26.86
2023-04-25T02:58:20.758Z,26.85
2023-04-25T02:59:20.741Z,26.83
2023-04-25T03:00:20.730Z,26.86
2023-04-25T03:01:20.798Z,26.88
2023-04-25T03:02:20.714Z,26.83
2023-04-25T03:03:20.824Z,26.85
2023-04-25T03:04:20.778Z,26.86
2023-04-25T03:05:20.744Z,26.85
2023-04-25T03:06:20.820Z,26.83
2023-04-25T03:07:20.846Z,26.85
2023-04-25T03:08:20.903Z,26.86
2023-04-25T03:09:20.963Z,26.86
2023-04-25T03:10:20.987Z,26.88
2023-04-25T03:11:21.000Z,26.83
2023-04-25T03:12:21.010Z,26.86
2023-04-25T03:13:21.035Z,26.83
2023-04-25T03:14:21.055Z,26.86
2023-04-25T03:15:21.134Z,26.86
2023-04-25T03:16:21.176Z,26.85
2023-04-25T03:17:21.207Z,26.86
2023-04-25T03:18:21.191Z,26.85
2023-04-25T03:19:21.281Z,26.85
2023-04-25T03:20:21.320Z,26.85
2023-04-25T03:21:21.312Z,26.85
2023-04-25T03:22:21.328Z,26.86
2023-04-25T03:23:21.359Z,26.85
2023-04-25T03:24:21.403Z,26.86
2023-04-25T03:25:21.468Z,26.86
2023-04-25T03:26:21.615Z,26.83
2023-04-25T03:27:21.551Z,26.88
2023-04-25T03:28:21.571Z,26.85
2023-04-25T03:29:21.626Z,26.85
2023-04-25T03:30:21.707Z,26.88
2023-04-25T03:31:21.708Z,26.86
2023-04-25T03:32:21.871Z,26.86
2023-04-25T03:33:21.736Z,26.86
2023-04-25T03:34:21.744Z,26.86
2023-04-25T03:35:21.755Z,26.88
2023-04-25T03:36:21.824Z,26.85
2023-04-25T03:37:21.843Z,26.86
2023-04-25T03:38:21.894Z,26.86
2023-04-25T03:39:21.940Z,26.86
2023-04-25T03:40:22.020Z,26.86
2023-04-25T03:41:22.039Z,26.85
2023-04-25T03:42:22.093Z,26.88
2023-04-25T03:43:22.204Z,26.86
2023-04-25T03:44:22.206Z,26.88
2023-04-25T03:45:22.222Z,26.86
2023-04-25T03:46:22.287Z,26.85
2023-04-25T03:47:22.295Z,26.86
2023-04-25T03:48:22.298Z,26.86
2023-04-25T03:49:22.322Z,26.85
2023-04-25T03:50:22.385Z,26.86
2023-04-25T03:51:22.429Z,26.85
2023-04-25T03:52:22.483Z,26.86
2023-04-25T03:53:22.531Z,26.88
2023-04-25T03:54:22.596Z,26.85
2023-04-25T03:55:22.640Z,26.86
2023-04-25T03:56:22.648Z,26.85
2023-04-25T03:57:22.654Z,26.88
2023-04-25T03:58:22.711Z,26.86
2023-04-25T03:59:22.759Z,26.83
2023-04-25T04:00:22.786Z,26.88
2023-04-25T04:01:22.892Z,26.88
2023-04-25T04:02:22.958Z,26.86
2023-04-25T04:03:23.073Z,26.83
2023-04-25T04:04:23.043Z,26.83
2023-04-25T04:05:23.007Z,26.85
2023-04-25T04:06:23.009Z,26.88
2023-04-25T04:07:23.041Z,26.85
2023-04-25T04:08:23.122Z,26.85
2023-04-25T04:09:23.142Z,26.85
2023-04-25T04:10:23.157Z,26.86
2023-04-25T04:11:23.182Z,26.86
2023-04-25T04:12:23.184Z,26.85
2023-04-25T04:13:23.211Z,26.83
2023-04-25T04:14:23.213Z,26.88
2023-04-25T04:15:23.245Z,26.85
2023-04-25T04:16:23.345Z,26.85
2023-04-25T04:17:23.330Z,26.86
2023-04-25T04:18:23.272Z,26.86
2023-04-25T04:19:23.296Z,26.85
2023-04-25T04:20:23.323Z,26.85
2023-04-25T04:21:23.362Z,26.85
2023-04-25T04:22:23.427Z,26.86
2023-04-25T04:23:23.473Z,26.88
2023-04-25T04:24:23.518Z,26.89
2023-04-25T04:25:23.576Z,26.86
2023-04-25T04:26:23.633Z,26.85
2023-04-25T04:27:23.702Z,26.85
2023-04-25T04:28:23.676Z,26.85
2023-04-25T04:29:23.699Z,26.85
2023-04-25T04:30:23.736Z,26.83
2023-04-25T04:31:23.772Z,26.83
2023-04-25T04:32:23.827Z,26.88
2023-04-25T04:33:23.771Z,26.85
2023-04-25T04:34:23.828Z,26.86
2023-04-25T04:35:23.869Z,26.85
2023-04-25T04:36:23.915Z,26.85
2023-04-25T04:37:23.935Z,26.85
2023-04-25T04:38:23.988Z,26.88
2023-04-25T04:39:24.046Z,26.85
2023-04-25T04:40:24.094Z,26.86
2023-04-25T04:41:24.112Z,26.86
2023-04-25T04:42:24.119Z,26.86
2023-04-25T04:43:24.176Z,26.86
2023-04-25T04:44:24.196Z,26.86
2023-04-25T04:45:24.248Z,26.86
2023-04-25T04:46:24.335Z,26.85
2023-04-25T04:47:24.384Z,26.88
2023-04-25T04:48:24.408Z,26.86
2023-04-25T04:49:24.437Z,26.86
2023-04-25T04:50:24.499Z,26.88
2023-04-25T04:51:24.536Z,26.85
2023-04-25T04:52:24.606Z,26.86
2023-04-25T04:53:24.645Z,26.88
2023-04-25T04:54:24.693Z,26.88
2023-04-25T04:55:24.731Z,26.85
2023-04-25T04:56:24.840Z,26.86
2023-04-25T04:57:24.851Z,26.85
2023-04-25T04:58:24.898Z,26.86
2023-04-25T04:59:24.917Z,26.86
2023-04-25T05:00:25.781Z,26.86
2023-04-25T05:01:25.136Z,26.88
2023-04-25T05:02:25.523Z,26.90
2023-04-25T05:03:25.166Z,26.88
2023-04-25T05:04:25.263Z,26.89
2023-04-25T05:05:25.113Z,26.90
2023-04-25T05:06:25.140Z,26.90
2023-04-25T05:07:25.194Z,26.92
2023-04-25T05:08:25.256Z,26.92
2023-04-25T05:09:25.312Z,26.93
2023-04-25T05:10:25.364Z,26.93
2023-04-25T05:11:25.395Z,26.93
2023-04-25T05:12:25.475Z,26.95
2023-04-25T05:13:25.463Z,26.99
2023-04-25T05:14:25.513Z,26.99
2023-04-25T05:15:25.528Z,27.02
2023-04-25T05:16:25.599Z,27.05
2023-04-25T05:17:25.627Z,27.05
2023-04-25T05:18:25.657Z,27.06
2023-04-25T05:19:25.678Z,27.10
2023-04-25T05:20:25.705Z,27.11
2023-04-25T05:21:25.756Z,27.14
2023-04-25T05:22:25.790Z,27.17
2023-04-25T05:23:25.840Z,27.19
2023-04-25T05:24:25.906Z,27.17
2023-04-25T05:25:25.910Z,27.17
2023-04-25T05:26:25.939Z,27.17
2023-04-25T05:27:25.982Z,27.17
2023-04-25T05:28:25.984Z,27.11
2023-04-25T05:29:26.034Z,27.00
2023-04-25T05:30:26.404Z,26.96
2023-04-25T05:31:26.172Z,26.99
2023-04-25T05:32:26.421Z,27.03
2023-04-25T05:33:26.205Z,27.06
2023-04-25T05:34:26.242Z,26.99
2023-04-25T05:35:26.351Z,27.03
2023-04-25T05:36:26.305Z,27.07
2023-04-25T05:37:26.325Z,27.02
2023-04-25T05:38:26.374Z,27.13
2023-04-25T05:39:26.375Z,27.14
2023-04-25T05:40:26.391Z,27.17
2023-04-25T05:41:26.438Z,27.23
2023-04-25T05:42:26.487Z,27.33
2023-04-25T05:43:26.474Z,27.39
2023-04-25T05:44:26.489Z,27.41
2023-04-25T05:45:26.713Z,27.47
2023-04-25T05:46:26.665Z,27.53
2023-04-25T05:47:26.519Z,27.60
2023-04-25T05:48:26.562Z,27.61
2023-04-25T05:49:26.550Z,27.62
2023-04-25T05:50:26.560Z,27.67
2023-04-25T05:51:26.624Z,27.65
2023-04-25T05:52:26.655Z,27.72
2023-04-25T05:53:26.755Z,27.72
2023-04-25T05:54:26.695Z,27.78
2023-04-25T05:55:26.730Z,27.80
2023-04-25T05:56:26.796Z,27.85
2023-04-25T05:57:26.800Z,27.87
2023-04-25T05:58:26.811Z,27.88
2023-04-25T05:59:26.860Z,27.89
2023-04-25T06:00:26.898Z,27.97
2023-04-25T06:01:26.939Z,27.97
2023-04-25T06:02:27.242Z,27.95
2023-04-25T06:03:27.213Z,27.97
2023-04-25T06:04:27.360Z,27.97
2023-04-25T06:05:27.220Z,28.01
2023-04-25T06:06:27.146Z,28.05
2023-04-25T06:07:27.182Z,28.08
2023-04-25T06:08:27.194Z,28.09
2023-04-25T06:09:27.218Z,28.11
2023-04-25T06:10:27.222Z,28.16
2023-04-25T06:11:27.271Z,28.19
2023-04-25T06:12:27.452Z,28.19
2023-04-25T06:13:27.284Z,28.16
2023-04-25T06:14:29.383Z,28.11
2023-04-25T06:15:28.917Z,28.16
2023-04-25T06:16:27.413Z,28.12
2023-04-25T06:17:27.473Z,28.18
2023-04-25T06:18:27.380Z,28.25
2023-04-25T06:19:27.401Z,28.23
2023-04-25T06:20:27.419Z,28.30
2023-04-25T06:21:27.595Z,28.29
2023-04-25T06:22:27.973Z,28.35
2023-04-25T06:23:27.479Z,28.35
2023-04-25T06:24:27.544Z,28.38
2023-04-25T06:25:27.529Z,28.42
2023-04-25T06:26:27.574Z,28.42
2023-04-25T06:27:27.610Z,28.35
2023-04-25T06:28:27.682Z,28.36
2023-04-25T06:29:27.664Z,28.42
2023-04-25T06:30:27.986Z,28.35
2023-04-25T06:31:27.745Z,28.34
2023-04-25T06:32:29.215Z,28.23
2023-04-25T06:33:27.939Z,28.16
2023-04-25T06:34:27.773Z,28.23
2023-04-25T06:35:27.816Z,28.16
2023-04-25T06:36:27.841Z,28.22
2023-04-25T06:37:27.920Z,28.20
2023-04-25T06:38:27.939Z,28.11
2023-04-25T06:39:27.912Z,28.22
2023-04-25T06:40:28.010Z,28.23
2023-04-25T06:41:27.956Z,28.25
2023-04-25T06:42:27.993Z,28.25
2023-04-25T06:43:28.445Z,28.23
2023-04-25T06:44:28.034Z,28.26
2023-04-25T06:45:28.449Z,28.29
2023-04-25T06:46:28.158Z,28.26
2023-04-25T06:47:28.248Z,28.26
2023-04-25T06:48:28.435Z,28.26
2023-04-25T06:49:28.406Z,28.25
2023-04-25T06:50:28.458Z,28.25
2023-04-25T06:51:28.328Z,28.25
2023-04-25T06:52:28.398Z,28.23
2023-04-25T06:53:28.424Z,28.25
2023-04-25T06:54:28.495Z,28.23
2023-04-25T06:55:28.510Z,28.26
2023-04-25T06:56:28.540Z,28.23
2023-04-25T06:57:28.579Z,28.22
2023-04-25T06:58:28.637Z,28.23
2023-04-25T06:59:28.645Z,28.22
2023-04-25T07:00:28.747Z,28.23
2023-04-25T07:01:28.784Z,28.19
2023-04-25T07:02:28.884Z,28.20
2023-04-25T07:03:28.904Z,28.20
2023-04-25T07:04:29.002Z,28.18
2023-04-25T07:05:28.961Z,28.19
2023-04-25T07:06:28.869Z,28.18
2023-04-25T07:07:28.881Z,28.16
2023-04-25T07:08:28.944Z,28.18
2023-04-25T07:09:28.963Z,28.23
2023-04-25T07:10:28.980Z,28.25
2023-04-25T07:11:28.984Z,28.25
2023-04-25T07:12:28.981Z,28.29
2023-04-25T07:13:29.009Z,28.23
2023-04-25T07:14:29.050Z,28.22
2023-04-25T07:15:29.085Z,28.23
2023-04-25T07:16:29.155Z,28.23
2023-04-25T07:17:29.111Z,28.25
2023-04-25T07:18:29.482Z,28.29
2023-04-25T07:19:29.135Z,28.29
2023-04-25T07:20:29.158Z,28.30
2023-04-25T07:21:29.162Z,28.34
2023-04-25T07:22:29.201Z,28.35
2023-04-25T07:23:29.222Z,28.36
2023-04-25T07:24:29.265Z,28.35
2023-04-25T07:25:29.456Z,28.26
2023-04-25T07:26:29.325Z,28.28
2023-04-25T07:27:29.374Z,28.29
2023-04-25T07:28:29.594Z,28.26
2023-04-25T07:29:29.375Z,28.29
2023-04-25T07:30:29.435Z,28.13
2023-04-25T07:31:29.476Z,28.13
2023-04-25T07:32:29.459Z,28.11
2023-04-25T07:33:29.497Z,28.11
2023-04-25T07:34:29.519Z,28.05
2023-04-25T07:35:29.566Z,28.01
2023-04-25T07:36:29.643Z,27.92
2023-04-25T07:37:29.684Z,27.84
2023-04-25T07:38:29.976Z,27.74
2023-04-25T07:39:29.746Z,27.71
2023-04-25T07:40:29.764Z,27.61
2023-04-25T07:41:29.788Z,27.60
2023-04-25T07:42:29.866Z,27.57
2023-04-25T07:43:29.980Z,27.54
2023-04-25T07:44:29.922Z,27.49
2023-04-25T07:45:29.945Z,27.43
2023-04-25T07:46:30.034Z,27.41
2023-04-25T07:47:30.068Z,27.39
2023-04-25T07:48:30.475Z,27.39
2023-04-25T07:49:30.098Z,27.36
2023-04-25T07:50:30.492Z,27.34
2023-04-25T07:51:30.323Z,27.30
2023-04-25T07:52:30.115Z,27.27
2023-04-25T07:53:30.464Z,27.25
2023-04-25T07:54:30.155Z,27.23
2023-04-25T07:55:30.223Z,27.20
2023-04-25T07:56:38.551Z,27.16
2023-04-25T07:57:31.208Z,27.13
2023-04-25T07:58:30.227Z,27.11
2023-04-25T07:59:30.523Z,27.06
2023-04-25T08:00:30.192Z,27.03
2023-04-25T08:01:30.193Z,27.03
2023-04-25T08:02:30.216Z,27.02
2023-04-25T08:03:30.325Z,27.00
2023-04-25T08:04:30.302Z,26.99
2023-04-25T08:05:30.290Z,26.98
2023-04-25T08:06:30.238Z,27.03
2023-04-25T08:07:30.194Z,27.05
2023-04-25T08:08:30.233Z,27.05
2023-04-25T08:09:30.259Z,27.10
2023-04-25T08:10:30.254Z,27.11
2023-04-25T08:11:30.260Z,27.14
2023-04-25T08:12:30.306Z,27.17
2023-04-25T08:13:30.448Z,27.25
2023-04-25T08:14:30.380Z,27.34
2023-04-25T08:15:30.465Z,27.33
2023-04-25T08:16:30.570Z,27.41
2023-04-25T08:17:30.497Z,27.49
2023-04-25T08:18:30.520Z,27.51
2023-04-25T08:19:30.534Z,27.54
2023-04-25T08:20:30.601Z,27.51
2023-04-25T08:21:31.006Z,27.54
2023-04-25T08:22:30.681Z,27.43
2023-04-25T08:23:30.992Z,27.49
2023-04-25T08:24:30.736Z,27.61
2023-04-25T08:25:30.832Z,27.65
2023-04-25T08:26:30.849Z,27.71
2023-04-25T08:27:30.882Z,27.68
2023-04-25T08:28:30.985Z,27.67
2023-04-25T08:29:30.945Z,27.65
2023-04-25T08:30:31.012Z,27.62
2023-04-25T08:31:31.050Z,27.70
2023-04-25T08:32:31.218Z,27.70
2023-04-25T08:33:31.119Z,27.68
2023-04-25T08:34:31.167Z,27.54
2023-04-25T08:35:31.186Z,27.53
2023-04-25T08:36:39.099Z,27.40
2023-04-25T08:37:32.264Z,27.23
2023-04-25T08:38:31.220Z,27.32
2023-04-25T08:39:31.194Z,27.36
2023-04-25T08:40:31.256Z,27.29
2023-04-25T08:41:31.173Z,27.32
2023-04-25T08:42:31.308Z,27.33
2023-04-25T08:43:31.177Z,27.39
2023-04-25T08:44:31.161Z,27.37
2023-04-25T08:45:31.370Z,27.43
2023-04-25T08:46:31.235Z,27.44
2023-04-25T08:47:31.158Z,27.47
2023-04-25T08:48:31.122Z,27.47
2023-04-25T08:49:31.152Z,27.49
2023-04-25T08:50:31.201Z,27.49
2023-04-25T08:51:31.504Z,27.40
2023-04-25T08:52:31.243Z,27.47
2023-04-25T08:53:32.008Z,27.44
2023-04-25T08:55:32.269Z,27.46
2023-04-25T08:56:31.258Z,27.47
2023-04-25T08:57:31.257Z,27.49
2023-04-25T08:58:31.229Z,27.51
2023-04-25T08:59:31.246Z,27.50
2023-04-25T09:00:31.280Z,27.53
2023-04-25T09:01:31.558Z,27.54
2023-04-25T09:02:31.275Z,27.56
2023-04-25T09:03:31.337Z,27.57
2023-04-25T09:04:31.204Z,27.57
2023-04-25T09:05:31.185Z,27.58
2023-04-25T09:06:31.179Z,27.60
2023-04-25T09:07:31.339Z,27.64
2023-04-25T09:08:31.234Z,27.62
2023-04-25T09:09:31.252Z,27.61
2023-04-25T09:10:29.053Z,27.47
2023-04-25T09:11:31.353Z,27.64
2023-04-25T09:12:31.440Z,27.60
2023-04-25T09:13:31.402Z,27.61
2023-04-25T09:14:31.522Z,27.62
2023-04-25T09:15:31.451Z,27.64
2023-04-25T09:16:32.265Z,27.64
2023-04-25T09:17:31.527Z,27.64
2023-04-25T09:18:31.523Z,27.67
2023-04-25T09:19:40.352Z,27.58
2023-04-25T09:20:35.254Z,27.64
2023-04-25T09:21:31.520Z,27.68
2023-04-25T09:22:31.490Z,27.70
2023-04-25T09:23:31.509Z,27.65
2023-04-25T09:24:31.532Z,27.67
2023-04-25T09:25:31.489Z,27.70
2023-04-25T09:26:31.530Z,27.54
2023-04-25T09:27:31.472Z,27.56
2023-04-25T09:28:31.466Z,27.54
2023-04-25T09:29:31.443Z,27.51
2023-04-25T09:30:31.477Z,27.41
2023-04-25T09:31:32.203Z,27.30
2023-04-25T09:32:31.560Z,27.20
2023-04-25T09:33:31.484Z,27.11
2023-04-25T09:34:31.505Z,27.03
2023-04-25T09:35:31.397Z,26.99
2023-04-25T09:36:31.518Z,26.98
2023-04-25T09:37:31.402Z,26.90
2023-04-25T09:38:31.377Z,26.89
2023-04-25T09:39:31.504Z,26.90
2023-04-25T09:40:31.398Z,26.86
2023-04-25T09:41:31.347Z,26.79
2023-04-25T09:42:31.350Z,26.78
2023-04-25T09:43:31.348Z,26.75
2023-04-25T09:44:31.497Z,26.72
2023-04-25T09:45:31.333Z,26.69
2023-04-25T09:46:31.565Z,26.71
2023-04-25T09:47:31.339Z,26.68
2023-04-25T09:48:31.301Z,26.69
2023-04-25T09:49:31.537Z,26.69
2023-04-25T09:50:31.291Z,26.59
2023-04-25T09:51:31.530Z,26.54
2023-04-25T09:52:31.297Z,26.42
2023-04-25T09:53:31.268Z,26.32
2023-04-25T09:54:31.257Z,26.24
2023-04-25T09:55:31.269Z,26.17
2023-04-25T09:56:31.247Z,26.11
2023-04-25T09:57:31.261Z,26.04
2023-04-25T09:58:32.811Z,26.01
2023-04-25T09:59:31.529Z,25.94
2023-04-25T10:00:31.303Z,25.87
2023-04-25T10:01:31.377Z,25.84
2023-04-25T10:02:31.411Z,25.75
2023-04-25T10:03:31.515Z,25.68
2023-04-25T10:04:32.824Z,25.70
2023-04-25T10:05:31.545Z,25.60
2023-04-25T10:06:31.769Z,25.56
2023-04-25T10:07:31.669Z,25.50
2023-04-25T10:08:31.665Z,25.50
2023-04-25T10:09:31.719Z,25.48
2023-04-25T10:10:32.264Z,25.46
2023-04-25T10:11:31.787Z,25.43
2023-04-25T10:12:31.764Z,25.41
2023-04-25T10:13:31.806Z,25.39
2023-04-25T10:14:31.843Z,25.38
2023-04-25T10:15:31.886Z,25.38
2023-04-25T10:16:32.109Z,25.45
2023-04-25T10:17:31.931Z,25.45
2023-04-25T10:18:31.894Z,25.45
2023-04-25T10:19:31.926Z,25.42
2023-04-25T10:20:31.950Z,25.45
2023-04-25T10:21:31.960Z,25.36
2023-04-25T10:22:32.035Z,25.25
2023-04-25T10:23:32.019Z,25.35
2023-04-25T10:24:32.544Z,25.36
2023-04-25T10:25:32.059Z,25.49
2023-04-25T10:26:32.114Z,25.60
2023-04-25T10:27:32.120Z,25.79
2023-04-25T10:28:32.159Z,25.91
2023-04-25T10:29:32.521Z,26.04
2023-04-25T10:30:32.215Z,26.21
2023-04-25T10:31:32.308Z,26.32
2023-04-25T10:32:32.533Z,26.42
2023-04-25T10:33:32.310Z,26.44
2023-04-25T10:34:32.330Z,26.54
2023-04-25T10:35:32.380Z,26.58
2023-04-25T10:36:32.464Z,26.68
2023-04-25T10:37:33.232Z,26.78
2023-04-25T10:38:32.553Z,26.82
2023-04-25T10:39:32.666Z,26.89
2023-04-25T10:40:32.609Z,26.92
2023-04-25T10:41:32.626Z,27.02
2023-04-25T10:42:32.689Z,27.11
2023-04-25T10:43:32.816Z,27.20
2023-04-25T10:44:32.800Z,27.26
2023-04-25T10:45:32.754Z,27.32
2023-04-25T10:46:32.837Z,27.39
2023-04-25T10:47:32.833Z,27.46
2023-04-25T10:48:32.863Z,27.49
2023-04-25T10:49:32.918Z,27.54
2023-04-25T10:50:32.946Z,27.58
2023-04-25T10:51:50.858Z,27.62
2023-04-25T10:52:33.967Z,27.68
2023-04-25T10:53:32.938Z,27.71
2023-04-25T10:54:32.924Z,27.78
2023-04-25T10:55:32.984Z,27.74
2023-04-25T10:56:32.912Z,27.75
2023-04-25T10:57:33.034Z,27.78
2023-04-25T10:58:32.917Z,27.83
2023-04-25T10:59:32.907Z,27.85
2023-04-25T11:00:38.547Z,27.84
2023-04-25T11:01:33.906Z,27.88
2023-04-25T11:02:33.156Z,27.89
2023-04-25T11:03:33.034Z,27.92
2023-04-25T11:04:33.211Z,27.95
2023-04-25T11:05:34.402Z,27.95
2023-04-25T11:06:32.856Z,27.95
2023-04-25T11:07:33.038Z,27.97
2023-04-25T11:08:32.838Z,27.99
2023-04-25T11:09:32.913Z,27.99
2023-04-25T11:10:32.852Z,27.99
2023-04-25T11:11:32.822Z,27.98
2023-04-25T11:12:32.815Z,27.91
2023-04-25T11:13:32.817Z,27.92
2023-04-25T11:14:32.902Z,27.84
2023-04-25T11:15:32.924Z,27.67
2023-04-25T11:16:32.987Z,27.60
2023-04-25T11:17:33.126Z,27.50
2023-04-25T11:18:33.075Z,27.46
2023-04-25T11:19:33.064Z,27.44
2023-04-25T11:20:33.069Z,27.40
2023-04-25T11:21:33.137Z,27.37
2023-04-25T11:22:33.177Z,27.34
2023-04-25T11:23:33.321Z,27.37
2023-04-25T11:24:33.235Z,27.33
2023-04-25T11:25:34.344Z,27.34
2023-04-25T11:26:33.483Z,27.32
2023-04-25T11:27:33.615Z,27.33
2023-04-25T11:28:33.490Z,27.32
2023-04-25T11:29:33.605Z,27.34
2023-04-25T11:30:33.428Z,27.34
2023-04-25T11:31:33.504Z,27.34
2023-04-25T11:32:33.645Z,27.36
2023-04-25T11:33:33.560Z,27.37
2023-04-25T11:34:33.660Z,27.39
2023-04-25T11:35:34.776Z,27.41
2023-04-25T11:36:33.622Z,27.46
2023-04-25T11:37:33.887Z,27.47
2023-04-25T11:38:33.838Z,27.51
2023-04-25T11:39:33.752Z,27.54
2023-04-25T11:40:33.756Z,27.58
2023-04-25T11:41:33.843Z,27.58
2023-04-25T11:42:33.974Z,27.61
2023-04-25T11:43:34.252Z,27.67
2023-04-25T11:44:33.924Z,27.70
2023-04-25T11:45:33.970Z,27.72
2023-04-25T11:46:33.952Z,27.75
2023-04-25T11:47:34.282Z,27.78
2023-04-25T11:48:34.117Z,27.78
2023-04-25T11:49:34.240Z,27.83
2023-04-25T11:50:34.089Z,27.83
2023-04-25T11:51:34.280Z,27.84
2023-04-25T11:52:34.191Z,27.85
2023-04-25T11:53:34.249Z,27.89
2023-04-25T11:54:34.303Z,27.89
2023-04-25T11:55:34.463Z,27.91
2023-04-25T11:56:34.350Z,27.91
2023-04-25T11:57:34.383Z,27.94
2023-04-25T11:58:34.897Z,27.95
2023-04-25T11:59:34.486Z,27.98
2023-04-25T12:00:34.496Z,27.98
2023-04-25T12:01:35.217Z,27.99
2023-04-25T12:02:34.630Z,28.02
2023-04-25T12:03:34.739Z,28.05
2023-04-25T12:04:34.865Z,28.08
2023-04-25T12:05:35.186Z,28.07
2023-04-25T12:06:34.690Z,28.09
2023-04-25T12:07:34.757Z,28.12
2023-04-25T12:08:34.756Z,28.09
2023-04-25T12:09:34.885Z,28.12
2023-04-25T12:10:34.821Z,28.12
2023-04-25T12:11:34.831Z,28.12
2023-04-25T12:12:34.824Z,28.13
2023-04-25T12:13:34.860Z,28.15
2023-04-25T12:14:34.873Z,28.15
2023-04-25T12:15:35.098Z,28.16
2023-04-25T12:16:35.058Z,28.19
2023-04-25T12:17:35.103Z,28.19
2023-04-25T12:18:35.042Z,28.20
2023-04-25T12:19:35.058Z,28.22
2023-04-25T12:20:35.072Z,28.22
2023-04-25T12:21:38.889Z,28.25
2023-04-25T12:22:36.597Z,28.25
2023-04-25T12:23:35.114Z,28.20
2023-04-25T12:24:38.669Z,28.19
2023-04-25T12:25:35.608Z,28.18
2023-04-25T12:26:35.089Z,28.15
2023-04-25T12:27:35.117Z,28.15
2023-04-25T12:28:35.092Z,28.13
2023-04-25T12:29:48.535Z,28.12
2023-04-25T12:30:36.047Z,28.11
2023-04-25T12:31:35.103Z,28.11
2023-04-25T12:32:35.107Z,28.11
2023-04-25T12:33:35.036Z,28.07
2023-04-25T12:34:35.056Z,28.07
2023-04-25T12:35:35.035Z,28.07
2023-04-25T12:36:34.998Z,28.05
2023-04-25T12:37:35.083Z,28.04
2023-04-25T12:38:35.014Z,28.04
2023-04-25T12:39:35.018Z,28.02
2023-04-25T12:40:34.987Z,28.01
2023-04-25T12:41:34.983Z,27.99
2023-04-25T12:42:35.009Z,27.97
2023-04-25T12:43:35.059Z,27.98
2023-04-25T12:44:35.176Z,27.97
2023-04-25T12:45:35.675Z,27.94
2023-04-25T12:46:35.191Z,27.91
2023-04-25T12:47:35.255Z,27.89
2023-04-25T12:48:35.256Z,27.88
2023-04-25T12:49:35.289Z,27.84
2023-04-25T12:50:35.337Z,27.85
2023-04-25T12:51:35.356Z,27.83
2023-04-25T12:52:35.387Z,27.81
2023-04-25T12:53:35.730Z,27.81